Time,TemperatureF,DewpointF,PressureIn,WindDirection,WindDirectionDegrees,WindSpeedMPH,WindSpeedGustMPH,Humidity,HourlyPrecipIn,Conditions,Clouds,dailyrainin,SolarRadiationWatts/m^2,SoftwareType,DateUTC
2013-04-16 00:12:00,33.0,29.0,-100.00,North,6,8.0,11.0,85,0.00,,,0.06,0.000000,,2013-04-16 07:12:00,
2013-04-16 00:22:00,33.0,29.0,-100.00,North,6,8.0,11.0,85,0.00,,,0.06,0.000000,,2013-04-16 07:22:00,
2013-04-16 00:32:00,33.0,29.0,-100.00,North,6,8.0,11.0,85,0.00,,,0.06,0.000000,,2013-04-16 07:32:00,
2013-04-16 00:42:00,33.0,29.0,-100.00,North,6,8.0,11.0,85,0.00,,,0.06,0.000000,,2013-04-16 07:42:00,
2013-04-16 01:12:00,33.0,29.0,-100.00,North,8,8.0,12.0,85,0.00,,,0.06,0.000000,,2013-04-16 08:12:00,
2013-04-16 01:22:00,33.0,29.0,-100.00,North,8,8.0,12.0,85,0.00,,,0.06,0.000000,,2013-04-16 08:22:00,
2013-04-16 01:32:00,33.0,29.0,-100.00,North,8,8.0,12.0,85,0.00,,,0.06,0.000000,,2013-04-16 08:32:00,
2013-04-16 01:42:00,33.0,29.0,-100.00,North,8,8.0,12.0,85,0.00,,,0.06,0.000000,,2013-04-16 08:42:00,
2013-04-16 02:12:00,31.0,28.0,-100.00,North,6,6.0,8.0,90,0.00,,,0.06,0.000000,,2013-04-16 09:12:00,
2013-04-16 02:22:00,31.0,28.0,-100.00,North,6,6.0,8.0,90,0.00,,,0.06,0.000000,,2013-04-16 09:22:00,
2013-04-16 02:32:00,31.0,28.0,-100.00,North,6,6.0,8.0,90,0.00,,,0.06,0.000000,,2013-04-16 09:32:00,
2013-04-16 02:42:00,31.0,28.0,-100.00,North,6,6.0,8.0,90,0.00,,,0.06,0.000000,,2013-04-16 09:42:00,
2013-04-16 03:13:00,32.0,28.0,-100.00,NNE,17,8.0,12.0,85,0.00,,,0.06,0.000000,,2013-04-16 10:13:00,
2013-04-16 03:22:00,32.0,28.0,-100.00,NNE,17,8.0,12.0,85,0.00,,,0.06,0.000000,,2013-04-16 10:22:00,
2013-04-16 03:32:00,32.0,28.0,-100.00,NNE,17,8.0,12.0,85,0.00,,,0.06,0.000000,,2013-04-16 10:32:00,
2013-04-16 03:42:00,32.0,28.0,-100.00,NNE,17,8.0,12.0,85,0.00,,,0.06,0.000000,,2013-04-16 10:42:00,
2013-04-16 04:12:00,31.0,28.0,-100.00,North,4,7.0,12.0,88,0.00,,,0.06,0.000000,,2013-04-16 11:12:00,
2013-04-16 04:22:00,31.0,28.0,-100.00,North,4,7.0,12.0,88,0.00,,,0.06,0.000000,,2013-04-16 11:22:00,
2013-04-16 04:32:00,31.0,28.0,-100.00,North,4,7.0,12.0,88,0.00,,,0.06,0.000000,,2013-04-16 11:32:00,
2013-04-16 04:42:00,31.0,28.0,-100.00,North,4,7.0,12.0,88,0.00,,,0.06,0.000000,,2013-04-16 11:42:00,
2013-04-16 05:12:00,31.0,27.0,-100.00,NNE,15,9.0,11.0,84,0.00,,,0.06,0.000000,,2013-04-16 12:12:00,
2013-04-16 05:22:00,31.0,27.0,-100.00,NNE,15,9.0,11.0,84,0.00,,,0.06,0.000000,,2013-04-16 12:22:00,
2013-04-16 05:32:00,31.0,27.0,-100.00,NNE,15,9.0,11.0,84,0.00,,,0.06,0.000000,,2013-04-16 12:32:00,
2013-04-16 05:42:00,31.0,27.0,-100.00,NNE,15,9.0,11.0,84,0.00,,,0.06,0.000000,,2013-04-16 12:42:00,
2013-04-16 06:12:00,30.0,24.0,-100.00,NNE,18,9.0,11.0,78,0.00,,,0.06,0.000000,,2013-04-16 13:12:00,
2013-04-16 06:22:00,30.0,24.0,-100.00,NNE,18,9.0,11.0,78,0.00,,,0.06,0.000000,,2013-04-16 13:22:00,
2013-04-16 06:32:00,30.0,24.0,-100.00,NNE,18,9.0,11.0,78,0.00,,,0.06,0.000000,,2013-04-16 13:32:00,
2013-04-16 06:42:00,30.0,24.0,-100.00,NNE,18,9.0,11.0,78,0.00,,,0.06,0.000000,,2013-04-16 13:42:00,
2013-04-16 07:12:00,29.0,24.0,-100.00,NNW,347,5.0,11.0,80,0.00,,,0.06,0.000000,,2013-04-16 14:12:00,
2013-04-16 07:22:00,29.0,24.0,-100.00,NNW,347,5.0,11.0,80,0.00,,,0.06,0.000000,,2013-04-16 14:22:00,
2013-04-16 07:32:00,29.0,24.0,-100.00,NNW,347,5.0,11.0,80,0.00,,,0.06,0.000000,,2013-04-16 14:32:00,
2013-04-16 07:42:00,29.0,24.0,-100.00,NNW,347,5.0,11.0,80,0.00,,,0.06,0.000000,,2013-04-16 14:42:00,
2013-04-16 08:12:00,34.0,24.0,-100.00,NNE,20,10.0,14.0,66,0.00,,,0.06,135.000000,,2013-04-16 15:12:00,
2013-04-16 08:22:00,34.0,24.0,-100.00,NNE,20,10.0,14.0,66,0.00,,,0.06,135.000000,,2013-04-16 15:22:00,
2013-04-16 08:32:00,34.0,24.0,-100.00,NNE,20,10.0,14.0,66,0.00,,,0.06,135.000000,,2013-04-16 15:32:00,
2013-04-16 08:43:00,34.0,24.0,-100.00,NNE,20,10.0,14.0,66,0.00,,,0.06,135.000000,,2013-04-16 15:43:00,
2013-04-16 09:13:00,37.0,20.0,-100.00,NNE,21,12.0,16.0,50,0.00,,,0.04,292.000000,,2013-04-16 16:13:00,
2013-04-16 09:23:00,37.0,20.0,-100.00,NNE,21,12.0,16.0,50,0.00,,,0.04,292.000000,,2013-04-16 16:23:00,
2013-04-16 09:32:00,37.0,20.0,-100.00,NNE,21,12.0,16.0,50,0.00,,,0.04,292.000000,,2013-04-16 16:32:00,
2013-04-16 09:42:00,37.0,20.0,-100.00,NNE,21,12.0,16.0,50,0.00,,,0.04,292.000000,,2013-04-16 16:42:00,
2013-04-16 10:12:00,40.0,18.0,-100.00,NNE,26,13.0,20.0,41,0.00,,,0.04,461.000000,,2013-04-16 17:12:00,
2013-04-16 10:22:00,40.0,18.0,-100.00,NNE,26,13.0,20.0,41,0.00,,,0.04,461.000000,,2013-04-16 17:22:00,
2013-04-16 10:32:00,40.0,18.0,-100.00,NNE,26,13.0,20.0,41,0.00,,,0.04,461.000000,,2013-04-16 17:32:00,
2013-04-16 10:43:00,40.0,18.0,-100.00,NNE,26,13.0,20.0,41,0.00,,,0.04,461.000000,,2013-04-16 17:43:00,
2013-04-16 11:12:00,42.0,18.0,-100.00,NNE,22,13.0,20.0,37,0.00,,,0.04,623.000000,,2013-04-16 18:12:00,
2013-04-16 11:22:00,42.0,18.0,-100.00,NNE,22,13.0,20.0,37,0.00,,,0.04,623.000000,,2013-04-16 18:22:00,
2013-04-16 11:32:00,42.0,18.0,-100.00,NNE,22,13.0,20.0,37,0.00,,,0.04,623.000000,,2013-04-16 18:32:00,
2013-04-16 11:42:00,42.0,18.0,-100.00,NNE,22,13.0,20.0,37,0.00,,,0.04,623.000000,,2013-04-16 18:42:00,
2013-04-16 12:12:00,43.0,17.0,-100.00,NNE,15,10.0,21.0,34,0.00,,,0.04,709.000000,,2013-04-16 19:12:00,
2013-04-16 12:22:00,43.0,17.0,-100.00,NNE,15,10.0,21.0,34,0.00,,,0.04,709.000000,,2013-04-16 19:22:00,
2013-04-16 12:32:00,43.0,17.0,-100.00,NNE,15,10.0,21.0,34,0.00,,,0.04,709.000000,,2013-04-16 19:32:00,
2013-04-16 12:42:00,43.0,17.0,-100.00,NNE,15,10.0,21.0,34,0.00,,,0.04,709.000000,,2013-04-16 19:42:00,
2013-04-16 13:12:00,42.0,14.0,-100.00,NNE,15,10.0,17.0,32,0.00,,,0.03,478.000000,,2013-04-16 20:12:00,
2013-04-16 13:22:00,42.0,14.0,-100.00,NNE,15,10.0,17.0,32,0.00,,,0.03,478.000000,,2013-04-16 20:22:00,
2013-04-16 13:32:00,42.0,14.0,-100.00,NNE,15,10.0,17.0,32,0.00,,,0.03,478.000000,,2013-04-16 20:32:00,
2013-04-16 13:42:00,42.0,14.0,-100.00,NNE,15,10.0,17.0,32,0.00,,,0.03,478.000000,,2013-04-16 20:42:00,
2013-04-16 14:12:00,46.0,16.0,-100.00,North,10,11.0,20.0,29,0.00,,,0.01,480.000000,,2013-04-16 21:12:00,
2013-04-16 14:22:00,46.0,16.0,-100.00,North,10,11.0,20.0,29,0.00,,,0.01,480.000000,,2013-04-16 21:22:00,
2013-04-16 14:32:00,46.0,16.0,-100.00,North,10,11.0,20.0,29,0.00,,,0.01,480.000000,,2013-04-16 21:32:00,
2013-04-16 14:42:00,46.0,16.0,-100.00,North,10,11.0,20.0,29,0.00,,,0.01,480.000000,,2013-04-16 21:42:00,
2013-04-16 15:13:00,46.0,14.0,-100.00,NNE,20,13.0,20.0,27,0.00,,,0.01,435.000000,,2013-04-16 22:13:00,
2013-04-16 15:22:00,46.0,14.0,-100.00,NNE,20,13.0,20.0,27,0.00,,,0.01,435.000000,,2013-04-16 22:22:00,
2013-04-16 15:32:00,46.0,14.0,-100.00,NNE,20,13.0,20.0,27,0.00,,,0.01,435.000000,,2013-04-16 22:32:00,
2013-04-16 15:42:00,46.0,14.0,-100.00,NNE,20,13.0,20.0,27,0.00,,,0.01,435.000000,,2013-04-16 22:42:00,
2013-04-16 16:12:00,43.0,13.0,-100.00,North,5,14.0,23.0,29,0.00,,,0.01,198.000000,,2013-04-16 23:12:00,
2013-04-16 16:22:00,43.0,13.0,-100.00,North,5,14.0,23.0,29,0.00,,,0.01,198.000000,,2013-04-16 23:22:00,
2013-04-16 16:32:00,43.0,13.0,-100.00,North,5,14.0,23.0,29,0.00,,,0.01,198.000000,,2013-04-16 23:32:00,
2013-04-16 16:42:00,43.0,13.0,-100.00,North,5,14.0,23.0,29,0.00,,,0.01,198.000000,,2013-04-16 23:42:00,
2013-04-16 17:12:00,45.0,14.0,-100.00,North,4,9.0,21.0,28,0.00,,,0.01,148.000000,,2013-04-17 00:12:00,
2013-04-16 17:22:00,45.0,14.0,-100.00,North,4,9.0,21.0,28,0.00,,,0.01,148.000000,,2013-04-17 00:22:00,
2013-04-16 17:32:00,45.0,14.0,-100.00,North,4,9.0,21.0,28,0.00,,,0.01,148.000000,,2013-04-17 00:32:00,
2013-04-16 17:42:00,45.0,14.0,-100.00,North,4,9.0,21.0,28,0.00,,,0.01,148.000000,,2013-04-17 00:42:00,
2013-04-16 18:12:00,44.0,15.0,-100.00,NNE,21,8.0,15.0,30,0.00,,,0.01,77.000000,,2013-04-17 01:12:00,
2013-04-16 18:22:00,44.0,15.0,-100.00,NNE,21,8.0,15.0,30,0.00,,,0.01,77.000000,,2013-04-17 01:22:00,
2013-04-16 18:32:00,44.0,15.0,-100.00,NNE,21,8.0,15.0,30,0.00,,,0.01,77.000000,,2013-04-17 01:32:00,
2013-04-16 18:42:00,44.0,15.0,-100.00,NNE,21,8.0,15.0,30,0.00,,,0.01,77.000000,,2013-04-17 01:42:00,
2013-04-16 19:12:00,45.0,15.0,-100.00,NNE,26,10.0,14.0,29,0.00,,,0.00,68.000000,,2013-04-17 02:12:00,
2013-04-16 19:22:00,45.0,15.0,-100.00,NNE,26,10.0,14.0,29,0.00,,,0.00,68.000000,,2013-04-17 02:22:00,
2013-04-16 19:32:00,45.0,15.0,-100.00,NNE,26,10.0,14.0,29,0.00,,,0.00,68.000000,,2013-04-17 02:32:00,
2013-04-16 19:42:00,45.0,15.0,-100.00,NNE,26,10.0,14.0,29,0.00,,,0.00,68.000000,,2013-04-17 02:42:00,
2013-04-16 20:12:00,37.0,15.0,-100.00,North,9,7.0,12.0,40,0.00,,,0.00,0.000000,,2013-04-17 03:12:00,
2013-04-16 20:22:00,37.0,15.0,-100.00,North,9,7.0,12.0,40,0.00,,,0.00,0.000000,,2013-04-17 03:22:00,
2013-04-16 20:32:00,37.0,15.0,-100.00,North,9,7.0,12.0,40,0.00,,,0.00,0.000000,,2013-04-17 03:32:00,
2013-04-16 20:42:00,37.0,15.0,-100.00,North,9,7.0,12.0,40,0.00,,,0.00,0.000000,,2013-04-17 03:42:00,
2013-04-16 21:13:00,34.0,19.0,-100.00,North,359,5.0,9.0,53,0.00,,,0.00,0.000000,,2013-04-17 04:13:00,
2013-04-16 21:22:00,34.0,19.0,-100.00,North,359,5.0,9.0,53,0.00,,,0.00,0.000000,,2013-04-17 04:22:00,
2013-04-16 21:33:00,34.0,19.0,-100.00,North,359,5.0,9.0,53,0.00,,,0.00,0.000000,,2013-04-17 04:33:00,
2013-04-16 21:42:00,34.0,19.0,-100.00,North,359,5.0,9.0,53,0.00,,,0.00,0.000000,,2013-04-17 04:42:00,
2013-04-16 22:12:00,32.0,21.0,-100.00,NNW,343,5.0,8.0,64,0.00,,,0.00,0.000000,,2013-04-17 05:12:00,
2013-04-16 22:22:00,32.0,21.0,-100.00,NNW,343,5.0,8.0,64,0.00,,,0.00,0.000000,,2013-04-17 05:22:00,
2013-04-16 22:32:00,32.0,21.0,-100.00,NNW,343,5.0,8.0,64,0.00,,,0.00,0.000000,,2013-04-17 05:32:00,
2013-04-16 22:42:00,32.0,21.0,-100.00,NNW,343,5.0,8.0,64,0.00,,,0.00,0.000000,,2013-04-17 05:42:00,
2013-04-16 23:12:00,31.0,23.0,-100.00,NNW,342,7.0,9.0,71,0.00,,,0.00,0.000000,,2013-04-17 06:12:00,
2013-04-16 23:22:00,31.0,23.0,-100.00,NNW,342,7.0,9.0,71,0.00,,,0.00,0.000000,,2013-04-17 06:22:00,
2013-04-16 23:32:00,31.0,23.0,-100.00,NNW,342,7.0,9.0,71,0.00,,,0.00,0.000000,,2013-04-17 06:32:00,
2013-04-16 23:42:00,31.0,23.0,-100.00,NNW,342,7.0,9.0,71,0.00,,,0.00,0.000000,,2013-04-17 06:42:00,